sensor_id;sensor_type;location;lat;lon;timestamp;temperature;humidity
13205;DHT22;6667;52.634;9.226;2023-01-25T06:18:06;0.70;99.90
13205;DHT22;6667;52.634;9.226;2023-01-25T06:20:33;0.60;99.90
13205;DHT22;6667;52.634;9.226;2023-01-25T06:22:59;0.60;99.90
13205;DHT22;6667;52.634;9.226;2023-01-25T06:25:26;0.50;99.90
13205;DHT22;6667;52.634;9.226;2023-01-25T06:27:54;0.60;99.90
13205;DHT22;6667;52.634;9.226;2023-01-25T06:30:20;0.60;99.90
13205;DHT22;6667;52.634;9.226;2023-01-25T06:32:47;0.60;99.90
13205;DHT22;6667;52.634;9.226;2023-01-25T06:35:16;0.60;99.90
13205;DHT22;6667;52.634;9.226;2023-01-25T06:37:42;0.70;99.90
13205;DHT22;6667;52.634;9.226;2023-01-25T06:40:10;0.70;99.90
13205;DHT22;6667;52.634;9.226;2023-01-25T06:42:37;0.70;99.90
13205;DHT22;6667;52.634;9.226;2023-01-25T06:45:04;0.70;99.90
13205;DHT22;6667;52.634;9.226;2023-01-25T06:47:31;0.70;99.90
13205;DHT22;6667;52.634;9.226;2023-01-25T06:49:58;0.60;99.90
13205;DHT22;6667;52.634;9.226;2023-01-25T06:52:26;0.70;99.90
13205;DHT22;6667;52.634;9.226;2023-01-25T06:54:52;0.70;99.90
13205;DHT22;6667;52.634;9.226;2023-01-25T06:57:19;0.70;99.90
13205;DHT22;6667;52.634;9.226;2023-01-25T06:59:45;0.70;99.90
13205;DHT22;6667;52.634;9.226;2023-01-25T07:02:13;0.70;99.90
13205;DHT22;6667;52.634;9.226;2023-01-25T07:04:40;0.60;99.90
13205;DHT22;6667;52.634;9.226;2023-01-25T07:07:07;0.60;99.90
13205;DHT22;6667;52.634;9.226;2023-01-25T07:09:36;0.50;99.90
13205;DHT22;6667;52.634;9.226;2023-01-25T07:12:03;0.40;99.90
13205;DHT22;6667;52.634;9.226;2023-01-25T07:14:30;0.60;99.90
13205;DHT22;6667;52.634;9.226;2023-01-25T07:16:56;0.60;99.90
13205;DHT22;6667;52.634;9.226;2023-01-25T07:19:23;0.50;99.90
13205;DHT22;6667;52.634;9.226;2023-01-25T07:21:50;0.50;99.90
13205;DHT22;6667;52.634;9.226;2023-01-25T07:24:18;0.60;99.90
13205;DHT22;6667;52.634;9.226;2023-01-25T07:26:46;0.50;99.90
13205;DHT22;6667;52.634;9.226;2023-01-25T07:29:14;0.60;99.90
13205;DHT22;6667;52.634;9.226;2023-01-25T07:31:41;0.60;99.90
13205;DHT22;6667;52.634;9.226;2023-01-25T07:34:09;0.50;99.90
13205;DHT22;6667;52.634;9.226;2023-01-25T07:36:37;0.50;99.90
13205;DHT22;6667;52.634;9.226;2023-01-25T07:39:05;0.60;99.90
13205;DHT22;6667;52.634;9.226;2023-01-25T07:41:33;0.60;99.90
13205;DHT22;6667;52.634;9.226;2023-01-25T07:44:02;0.60;99.90
13205;DHT22;6667;52.634;9.226;2023-01-25T07:46:29;0.60;99.90
13205;DHT22;6667;52.634;9.226;2023-01-25T07:48:55;0.60;99.90
13205;DHT22;6667;52.634;9.226;2023-01-25T07:51:23;0.50;99.90
13205;DHT22;6667;52.634;9.226;2023-01-25T07:53:53;0.60;99.90
13205;DHT22;6667;52.634;9.226;2023-01-25T07:56:21;0.60;99.90
13205;DHT22;6667;52.634;9.226;2023-01-25T07:58:50;0.60;99.90
13205;DHT22;6667;52.634;9.226;2023-01-25T08:01:20;0.70;99.90
13205;DHT22;6667;52.634;9.226;2023-01-25T08:03:47;0.70;99.90
13205;DHT22;6667;52.634;9.226;2023-01-25T08:06:15;0.70;99.90
13205;DHT22;6667;52.634;9.226;2023-01-25T08:08:43;0.70;99.90
13205;DHT22;6667;52.634;9.226;2023-01-25T08:11:12;0.70;99.90
13205;DHT22;6667;52.634;9.226;2023-01-25T08:13:40;0.70;99.90
13205;DHT22;6667;52.634;9.226;2023-01-25T08:16:10;0.70;99.90
13205;DHT22;6667;52.634;9.226;2023-01-25T08:18:38;0.60;99.90
13205;DHT22;6667;52.634;9.226;2023-01-25T08:21:05;0.60;99.90
13205;DHT22;6667;52.634;9.226;2023-01-25T08:23:32;0.70;99.90
13205;DHT22;6667;52.634;9.226;2023-01-25T08:26:01;0.80;99.90
13205;DHT22;6667;52.634;9.226;2023-01-25T08:28:28;0.80;99.90
13205;DHT22;6667;52.634;9.226;2023-01-25T08:30:54;0.80;99.90
13205;DHT22;6667;52.634;9.226;2023-01-25T08:33:21;0.70;99.90
13205;DHT22;6667;52.634;9.226;2023-01-25T08:35:54;0.80;99.90
13205;DHT22;6667;52.634;9.226;2023-01-25T08:38:22;0.80;99.90
13205;DHT22;6667;52.634;9.226;2023-01-25T08:40:48;0.90;99.90
13205;DHT22;6667;52.634;9.226;2023-01-25T08:43:15;0.80;99.90
13205;DHT22;6667;52.634;9.226;2023-01-25T08:45:42;0.80;99.90
13205;DHT22;6667;52.634;9.226;2023-01-25T08:48:08;0.80;99.90
13205;DHT22;6667;52.634;9.226;2023-01-25T08:50:37;0.80;99.90
13205;DHT22;6667;52.634;9.226;2023-01-25T08:53:05;0.70;99.90
13205;DHT22;6667;52.634;9.226;2023-01-25T08:55:34;0.60;99.90
13205;DHT22;6667;52.634;9.226;2023-01-25T08:58:01;0.70;99.90
13205;DHT22;6667;52.634;9.226;2023-01-25T09:00:27;0.80;99.90
13205;DHT22;6667;52.634;9.226;2023-01-25T09:02:54;0.80;99.90
13205;DHT22;6667;52.634;9.226;2023-01-25T09:05:21;0.80;99.90
13205;DHT22;6667;52.634;9.226;2023-01-25T09:07:47;0.80;99.90
13205;DHT22;6667;52.634;9.226;2023-01-25T09:10:16;0.70;99.90
13205;DHT22;6667;52.634;9.226;2023-01-25T09:12:42;0.70;99.90
13205;DHT22;6667;52.634;9.226;2023-01-25T09:15:09;0.80;99.90
13205;DHT22;6667;52.634;9.226;2023-01-25T09:17:36;0.80;99.90
13205;DHT22;6667;52.634;9.226;2023-01-25T09:20:04;0.80;99.90
13205;DHT22;6667;52.634;9.226;2023-01-25T09:22:31;0.90;99.90
13205;DHT22;6667;52.634;9.226;2023-01-25T09:24:58;0.80;99.90
13205;DHT22;6667;52.634;9.226;2023-01-25T09:27:26;0.80;99.90
13205;DHT22;6667;52.634;9.226;2023-01-25T09:29:52;0.70;99.90
13205;DHT22;6667;52.634;9.226;2023-01-25T09:32:19;0.60;99.90
13205;DHT22;6667;52.634;9.226;2023-01-25T09:34:45;0.70;99.90
13205;DHT22;6667;52.634;9.226;2023-01-25T09:37:12;0.80;99.90
13205;DHT22;6667;52.634;9.226;2023-01-25T09:39:39;0.80;99.90
13205;DHT22;6667;52.634;9.226;2023-01-25T09:42:31;0.80;99.90
13205;DHT22;6667;52.634;9.226;2023-01-25T09:45:16;0.90;99.90
13205;DHT22;6667;52.634;9.226;2023-01-25T09:47:51;0.90;99.90
13205;DHT22;6667;52.634;9.226;2023-01-25T09:50:32;0.90;99.90
13205;DHT22;6667;52.634;9.226;2023-01-25T09:53:19;0.90;99.90
13205;DHT22;6667;52.634;9.226;2023-01-25T09:55:51;0.90;99.90
13205;DHT22;6667;52.634;9.226;2023-01-25T09:58:27;0.90;99.90
13205;DHT22;6667;52.634;9.226;2023-01-25T10:01:08;0.90;99.90
13205;DHT22;6667;52.634;9.226;2023-01-25T10:03:41;0.90;99.90
13205;DHT22;6667;52.634;9.226;2023-01-25T10:06:12;1.00;99.90
13205;DHT22;6667;52.634;9.226;2023-01-25T10:08:48;1.00;99.90
13205;DHT22;6667;52.634;9.226;2023-01-25T10:11:20;1.00;99.90
13205;DHT22;6667;52.634;9.226;2023-01-25T10:13:49;0.90;99.90
13205;DHT22;6667;52.634;9.226;2023-01-25T10:16:20;0.90;99.90
13205;DHT22;6667;52.634;9.226;2023-01-25T10:18:55;0.90;99.90
13205;DHT22;6667;52.634;9.226;2023-01-25T10:21:28;0.90;99.90
13205;DHT22;6667;52.634;9.226;2023-01-25T10:26:51;1.00;99.90
13205;DHT22;6667;52.634;9.226;2023-01-25T10:29:25;1.00;99.90
13205;DHT22;6667;52.634;9.226;2023-01-25T10:31:54;0.90;99.90
13205;DHT22;6667;52.634;9.226;2023-01-25T10:34:23;0.90;99.90
13205;DHT22;6667;52.634;9.226;2023-01-25T10:36:53;0.90;99.90
13205;DHT22;6667;52.634;9.226;2023-01-25T10:39:20;0.90;99.90
13205;DHT22;6667;52.634;9.226;2023-01-25T10:41:50;0.90;99.90
13205;DHT22;6667;52.634;9.226;2023-01-25T10:44:18;0.90;99.90
13205;DHT22;6667;52.634;9.226;2023-01-25T10:46:55;0.90;99.90
13205;DHT22;6667;52.634;9.226;2023-01-25T10:49:25;0.90;99.90
13205;DHT22;6667;52.634;9.226;2023-01-25T10:51:53;1.00;99.90
13205;DHT22;6667;52.634;9.226;2023-01-25T10:54:21;1.00;99.90
13205;DHT22;6667;52.634;9.226;2023-01-25T10:56:49;1.00;99.90
13205;DHT22;6667;52.634;9.226;2023-01-25T10:59:22;1.00;99.90
13205;DHT22;6667;52.634;9.226;2023-01-25T11:01:51;1.00;99.90
13205;DHT22;6667;52.634;9.226;2023-01-25T11:04:30;1.00;99.90
13205;DHT22;6667;52.634;9.226;2023-01-25T11:06:57;1.10;99.90
13205;DHT22;6667;52.634;9.226;2023-01-25T11:09:32;1.00;99.90
13205;DHT22;6667;52.634;9.226;2023-01-25T11:12:01;1.00;99.90
13205;DHT22;6667;52.634;9.226;2023-01-25T11:14:30;1.00;99.90
13205;DHT22;6667;52.634;9.226;2023-01-25T11:17:00;0.90;99.90
13205;DHT22;6667;52.634;9.226;2023-01-25T11:19:31;1.00;99.90
13205;DHT22;6667;52.634;9.226;2023-01-25T11:22:00;0.90;99.90
13205;DHT22;6667;52.634;9.226;2023-01-25T11:24:28;1.00;99.90
13205;DHT22;6667;52.634;9.226;2023-01-25T11:27:12;1.00;99.90
13205;DHT22;6667;52.634;9.226;2023-01-25T11:29:39;1.00;99.90
13205;DHT22;6667;52.634;9.226;2023-01-25T11:32:16;1.00;99.90
13205;DHT22;6667;52.634;9.226;2023-01-25T11:34:46;1.00;99.90
13205;DHT22;6667;52.634;9.226;2023-01-25T11:37:25;1.00;99.90
13205;DHT22;6667;52.634;9.226;2023-01-25T11:40:01;1.00;99.90
13205;DHT22;6667;52.634;9.226;2023-01-25T11:42:39;1.00;99.90
13205;DHT22;6667;52.634;9.226;2023-01-25T11:45:34;1.10;99.90
13205;DHT22;6667;52.634;9.226;2023-01-25T11:48:29;1.10;99.90
13205;DHT22;6667;52.634;9.226;2023-01-25T11:51:03;1.10;99.90
13205;DHT22;6667;52.634;9.226;2023-01-25T11:53:45;1.00;99.90
13205;DHT22;6667;52.634;9.226;2023-01-25T11:56:24;1.10;99.90
13205;DHT22;6667;52.634;9.226;2023-01-25T11:59:12;1.10;99.90
13205;DHT22;6667;52.634;9.226;2023-01-25T12:01:55;1.10;99.90
13205;DHT22;6667;52.634;9.226;2023-01-25T12:04:44;1.10;99.90
13205;DHT22;6667;52.634;9.226;2023-01-25T12:07:21;1.10;99.90
13205;DHT22;6667;52.634;9.226;2023-01-25T12:10:02;1.10;99.90
13205;DHT22;6667;52.634;9.226;2023-01-25T12:12:40;1.00;99.90
13205;DHT22;6667;52.634;9.226;2023-01-25T12:15:37;1.10;99.90
13205;DHT22;6667;52.634;9.226;2023-01-25T12:18:21;1.20;99.90
13205;DHT22;6667;52.634;9.226;2023-01-25T12:21:04;1.10;99.90
13205;DHT22;6667;52.634;9.226;2023-01-25T12:23:50;1.20;99.90
13205;DHT22;6667;52.634;9.226;2023-01-25T12:26:23;1.10;99.90
13205;DHT22;6667;52.634;9.226;2023-01-25T12:28:58;1.00;99.90
13205;DHT22;6667;52.634;9.226;2023-01-25T12:31:35;1.10;99.90
13205;DHT22;6667;52.634;9.226;2023-01-25T12:34:09;1.00;99.90
13205;DHT22;6667;52.634;9.226;2023-01-25T12:36:41;0.90;99.90
13205;DHT22;6667;52.634;9.226;2023-01-25T12:39:12;0.90;99.90
13205;DHT22;6667;52.634;9.226;2023-01-25T12:41:42;1.00;99.90
13205;DHT22;6667;52.634;9.226;2023-01-25T12:44:16;1.00;99.90
13205;DHT22;6667;52.634;9.226;2023-01-25T12:46:50;1.00;99.90
13205;DHT22;6667;52.634;9.226;2023-01-25T12:49:24;1.10;99.90
13205;DHT22;6667;52.634;9.226;2023-01-25T12:51:55;1.00;99.90
13205;DHT22;6667;52.634;9.226;2023-01-25T12:54:28;1.00;99.90
13205;DHT22;6667;52.634;9.226;2023-01-25T12:57:04;1.00;99.90
13205;DHT22;6667;52.634;9.226;2023-01-25T12:59:39;0.90;99.90
13205;DHT22;6667;52.634;9.226;2023-01-25T13:02:24;0.90;99.90
13205;DHT22;6667;52.634;9.226;2023-01-25T13:05:00;0.90;99.90
13205;DHT22;6667;52.634;9.226;2023-01-25T13:07:36;0.90;99.90
13205;DHT22;6667;52.634;9.226;2023-01-25T13:10:14;0.90;99.90
13205;DHT22;6667;52.634;9.226;2023-01-25T13:12:50;1.00;99.90
13205;DHT22;6667;52.634;9.226;2023-01-25T13:15:38;1.00;99.90
13205;DHT22;6667;52.634;9.226;2023-01-25T13:18:36;0.90;99.90
13205;DHT22;6667;52.634;9.226;2023-01-25T13:21:09;0.90;99.90
13205;DHT22;6667;52.634;9.226;2023-01-25T13:23:39;0.80;99.90
13205;DHT22;6667;52.634;9.226;2023-01-25T13:26:37;0.90;99.90
13205;DHT22;6667;52.634;9.226;2023-01-25T13:35:42;0.90;99.90
13205;DHT22;6667;52.634;9.226;2023-01-25T13:38:27;0.80;99.90
13205;DHT22;6667;52.634;9.226;2023-01-25T13:41:17;0.80;99.90
13205;DHT22;6667;52.634;9.226;2023-01-25T13:43:47;0.70;99.90
13205;DHT22;6667;52.634;9.226;2023-01-25T13:46:18;0.70;99.90
13205;DHT22;6667;52.634;9.226;2023-01-25T13:48:53;0.80;99.90
13205;DHT22;6667;52.634;9.226;2023-01-25T13:51:21;0.80;99.90
13205;DHT22;6667;52.634;9.226;2023-01-25T13:53:57;0.90;99.90
13205;DHT22;6667;52.634;9.226;2023-01-25T13:56:28;0.90;99.90
13205;DHT22;6667;52.634;9.226;2023-01-25T13:58:57;1.00;99.90
13205;DHT22;6667;52.634;9.226;2023-01-25T14:01:23;1.00;99.90
13205;DHT22;6667;52.634;9.226;2023-01-25T14:03:53;0.90;99.90
13205;DHT22;6667;52.634;9.226;2023-01-25T14:06:23;0.90;99.90
13205;DHT22;6667;52.634;9.226;2023-01-25T14:08:53;1.00;99.90
13205;DHT22;6667;52.634;9.226;2023-01-25T14:11:21;0.90;99.90
13205;DHT22;6667;52.634;9.226;2023-01-25T14:14:00;0.90;99.90
13205;DHT22;6667;52.634;9.226;2023-01-25T14:16:28;1.00;99.90
13205;DHT22;6667;52.634;9.226;2023-01-25T14:19:08;1.00;99.90
13205;DHT22;6667;52.634;9.226;2023-01-25T14:21:44;0.90;99.90
13205;DHT22;6667;52.634;9.226;2023-01-25T14:24:13;0.90;99.90
13205;DHT22;6667;52.634;9.226;2023-01-25T14:26:43;0.90;99.90
13205;DHT22;6667;52.634;9.226;2023-01-25T14:29:16;0.90;99.90
13205;DHT22;6667;52.634;9.226;2023-01-25T14:31:47;0.90;99.90
13205;DHT22;6667;52.634;9.226;2023-01-25T14:34:17;0.90;99.90
13205;DHT22;6667;52.634;9.226;2023-01-25T14:36:45;1.00;99.90
13205;DHT22;6667;52.634;9.226;2023-01-25T14:39:15;0.90;99.90
13205;DHT22;6667;52.634;9.226;2023-01-25T14:41:45;0.90;99.90
13205;DHT22;6667;52.634;9.226;2023-01-25T14:44:17;0.90;99.90
13205;DHT22;6667;52.634;9.226;2023-01-25T14:46:45;0.90;99.90
13205;DHT22;6667;52.634;9.226;2023-01-25T14:49:18;0.90;99.90
13205;DHT22;6667;52.634;9.226;2023-01-25T14:51:53;0.90;99.90
13205;DHT22;6667;52.634;9.226;2023-01-25T14:54:23;0.90;99.90
13205;DHT22;6667;52.634;9.226;2023-01-25T14:56:52;0.90;99.90
13205;DHT22;6667;52.634;9.226;2023-01-25T14:59:24;0.80;99.90
13205;DHT22;6667;52.634;9.226;2023-01-25T15:01:53;0.70;99.90
13205;DHT22;6667;52.634;9.226;2023-01-25T15:04:20;0.70;99.90
13205;DHT22;6667;52.634;9.226;2023-01-25T15:06:49;0.70;99.90
13205;DHT22;6667;52.634;9.226;2023-01-25T15:09:33;0.80;99.90
13205;DHT22;6667;52.634;9.226;2023-01-25T15:12:00;0.80;99.90
13205;DHT22;6667;52.634;9.226;2023-01-25T15:14:28;0.80;99.90
13205;DHT22;6667;52.634;9.226;2023-01-25T15:16:55;0.90;99.90
13205;DHT22;6667;52.634;9.226;2023-01-25T15:19:25;0.80;99.90
13205;DHT22;6667;52.634;9.226;2023-01-25T15:21:57;0.70;99.90
13205;DHT22;6667;52.634;9.226;2023-01-25T15:24:24;0.70;99.90
13205;DHT22;6667;52.634;9.226;2023-01-25T15:26:52;0.70;99.90
13205;DHT22;6667;52.634;9.226;2023-01-25T15:29:21;0.70;99.90
13205;DHT22;6667;52.634;9.226;2023-01-25T15:31:50;0.80;99.90
13205;DHT22;6667;52.634;9.226;2023-01-25T15:34:18;0.80;99.90
13205;DHT22;6667;52.634;9.226;2023-01-25T15:36:46;0.70;99.90
13205;DHT22;6667;52.634;9.226;2023-01-25T15:39:14;0.70;99.90
13205;DHT22;6667;52.634;9.226;2023-01-25T15:41:41;0.70;99.90
13205;DHT22;6667;52.634;9.226;2023-01-25T15:44:09;0.70;99.90
13205;DHT22;6667;52.634;9.226;2023-01-25T15:46:38;0.70;99.90
13205;DHT22;6667;52.634;9.226;2023-01-25T15:49:07;0.70;99.90
13205;DHT22;6667;52.634;9.226;2023-01-25T15:51:35;0.70;99.90
13205;DHT22;6667;52.634;9.226;2023-01-25T15:54:02;0.70;99.90
13205;DHT22;6667;52.634;9.226;2023-01-25T15:56:31;0.70;99.90
13205;DHT22;6667;52.634;9.226;2023-01-25T15:59:04;0.70;99.90
13205;DHT22;6667;52.634;9.226;2023-01-25T16:01:31;0.70;99.90
13205;DHT22;6667;52.634;9.226;2023-01-25T16:03:58;0.60;99.90
13205;DHT22;6667;52.634;9.226;2023-01-25T16:06:36;0.60;99.90
13205;DHT22;6667;52.634;9.226;2023-01-25T16:09:14;0.60;99.90
13205;DHT22;6667;52.634;9.226;2023-01-25T16:11:41;0.50;99.90
13205;DHT22;6667;52.634;9.226;2023-01-25T16:14:08;0.50;99.90
13205;DHT22;6667;52.634;9.226;2023-01-25T16:16:38;0.60;99.90
13205;DHT22;6667;52.634;9.226;2023-01-25T16:19:05;0.60;99.90
13205;DHT22;6667;52.634;9.226;2023-01-25T16:21:31;0.60;99.90
13205;DHT22;6667;52.634;9.226;2023-01-25T16:23:59;0.50;99.90
13205;DHT22;6667;52.634;9.226;2023-01-25T16:26:27;0.50;99.90
13205;DHT22;6667;52.634;9.226;2023-01-25T16:28:54;0.50;99.90
13205;DHT22;6667;52.634;9.226;2023-01-25T16:31:21;0.40;99.90
13205;DHT22;6667;52.634;9.226;2023-01-25T16:33:48;0.40;99.90
13205;DHT22;6667;52.634;9.226;2023-01-25T16:36:16;0.40;99.90
13205;DHT22;6667;52.634;9.226;2023-01-25T16:38:43;0.50;99.90
13205;DHT22;6667;52.634;9.226;2023-01-25T16:41:11;0.40;99.90
13205;DHT22;6667;52.634;9.226;2023-01-25T16:43:39;0.30;99.90
13205;DHT22;6667;52.634;9.226;2023-01-25T16:46:13;0.40;99.90
13205;DHT22;6667;52.634;9.226;2023-01-25T16:48:40;0.40;99.90
13205;DHT22;6667;52.634;9.226;2023-01-25T16:51:12;0.40;99.90
13205;DHT22;6667;52.634;9.226;2023-01-25T16:53:39;0.30;99.90
13205;DHT22;6667;52.634;9.226;2023-01-25T16:56:07;0.30;99.90
13205;DHT22;6667;52.634;9.226;2023-01-25T16:58:35;0.20;99.90
13205;DHT22;6667;52.634;9.226;2023-01-25T17:01:07;0.20;99.90
13205;DHT22;6667;52.634;9.226;2023-01-25T17:03:34;0.30;99.90
13205;DHT22;6667;52.634;9.226;2023-01-25T17:06:01;0.20;99.90
13205;DHT22;6667;52.634;9.226;2023-01-25T17:08:27;0.20;99.90
13205;DHT22;6667;52.634;9.226;2023-01-25T17:10:54;0.10;99.90
13205;DHT22;6667;52.634;9.226;2023-01-25T17:13:22;0.20;99.90
13205;DHT22;6667;52.634;9.226;2023-01-25T17:15:50;0.10;99.90
13205;DHT22;6667;52.634;9.226;2023-01-25T17:18:16;0.10;99.90
13205;DHT22;6667;52.634;9.226;2023-01-25T17:20:43;0.20;99.90
13205;DHT22;6667;52.634;9.226;2023-01-25T17:23:09;0.10;99.90
13205;DHT22;6667;52.634;9.226;2023-01-25T17:25:37;0.10;99.90
13205;DHT22;6667;52.634;9.226;2023-01-25T17:28:04;0.10;99.90
13205;DHT22;6667;52.634;9.226;2023-01-25T17:30:30;0.10;99.90
13205;DHT22;6667;52.634;9.226;2023-01-25T17:32:58;0.10;99.90
13205;DHT22;6667;52.634;9.226;2023-01-25T17:35:25;0.10;99.90
13205;DHT22;6667;52.634;9.226;2023-01-25T17:37:52;0.10;99.90
13205;DHT22;6667;52.634;9.226;2023-01-25T17:40:19;0.10;99.90
13205;DHT22;6667;52.634;9.226;2023-01-25T17:42:45;0.10;99.90
13205;DHT22;6667;52.634;9.226;2023-01-25T17:45:12;0.10;99.90
13205;DHT22;6667;52.634;9.226;2023-01-25T17:47:39;0.10;99.90
13205;DHT22;6667;52.634;9.226;2023-01-25T17:50:08;0.00;99.90
13205;DHT22;6667;52.634;9.226;2023-01-25T17:52:35;0.00;99.90
13205;DHT22;6667;52.634;9.226;2023-01-25T17:55:01;0.00;99.90
13205;DHT22;6667;52.634;9.226;2023-01-25T17:57:29;0.00;99.90
13205;DHT22;6667;52.634;9.226;2023-01-25T17:59:56;0.00;99.90
13205;DHT22;6667;52.634;9.226;2023-01-25T18:02:23;0.00;99.90
13205;DHT22;6667;52.634;9.226;2023-01-25T18:04:49;0.10;99.90
13205;DHT22;6667;52.634;9.226;2023-01-25T18:07:17;0.10;99.90
13205;DHT22;6667;52.634;9.226;2023-01-25T18:09:44;0.10;99.90
13205;DHT22;6667;52.634;9.226;2023-01-25T18:12:10;0.00;99.90
13205;DHT22;6667;52.634;9.226;2023-01-25T18:14:37;0.00;99.90
13205;DHT22;6667;52.634;9.226;2023-01-25T18:17:04;-0.10;99.90
13205;DHT22;6667;52.634;9.226;2023-01-25T18:19:30;0.00;99.90
13205;DHT22;6667;52.634;9.226;2023-01-25T18:21:57;0.20;99.90
13205;DHT22;6667;52.634;9.226;2023-01-25T18:24:29;0.30;99.90
13205;DHT22;6667;52.634;9.226;2023-01-25T18:27:00;0.20;99.90
13205;DHT22;6667;52.634;9.226;2023-01-25T18:29:34;0.10;99.90
13205;DHT22;6667;52.634;9.226;2023-01-25T18:32:05;0.10;99.90
13205;DHT22;6667;52.634;9.226;2023-01-25T18:34:32;0.00;99.90
13205;DHT22;6667;52.634;9.226;2023-01-25T18:36:59;0.00;99.90
13205;DHT22;6667;52.634;9.226;2023-01-25T18:39:27;0.00;99.90
13205;DHT22;6667;52.634;9.226;2023-01-25T18:41:54;0.10;99.90
13205;DHT22;6667;52.634;9.226;2023-01-25T18:44:20;0.00;99.90
13205;DHT22;6667;52.634;9.226;2023-01-25T18:46:47;0.00;99.90
13205;DHT22;6667;52.634;9.226;2023-01-25T18:49:14;0.00;99.90
13205;DHT22;6667;52.634;9.226;2023-01-25T18:51:40;0.00;99.90
13205;DHT22;6667;52.634;9.226;2023-01-25T18:54:08;0.00;99.90
13205;DHT22;6667;52.634;9.226;2023-01-25T18:56:36;0.00;99.90
13205;DHT22;6667;52.634;9.226;2023-01-25T18:59:03;-0.10;99.90
13205;DHT22;6667;52.634;9.226;2023-01-25T19:01:30;-0.20;99.90
13205;DHT22;6667;52.634;9.226;2023-01-25T19:03:57;-0.20;99.90
13205;DHT22;6667;52.634;9.226;2023-01-25T19:06:24;-0.10;99.90
13205;DHT22;6667;52.634;9.226;2023-01-25T19:08:50;-0.10;99.90
13205;DHT22;6667;52.634;9.226;2023-01-25T19:11:20;-0.10;99.90
13205;DHT22;6667;52.634;9.226;2023-01-25T19:13:48;-0.20;99.90
13205;DHT22;6667;52.634;9.226;2023-01-25T19:16:17;-0.10;99.90
13205;DHT22;6667;52.634;9.226;2023-01-25T19:18:46;-0.20;99.90
13205;DHT22;6667;52.634;9.226;2023-01-25T19:21:15;-0.20;99.90
13205;DHT22;6667;52.634;9.226;2023-01-25T19:23:43;-0.30;99.90
13205;DHT22;6667;52.634;9.226;2023-01-25T19:26:11;-0.20;99.90
13205;DHT22;6667;52.634;9.226;2023-01-25T19:28:38;-0.20;99.90
13205;DHT22;6667;52.634;9.226;2023-01-25T19:31:07;-0.20;99.90
13205;DHT22;6667;52.634;9.226;2023-01-25T19:33:35;-0.20;99.90
13205;DHT22;6667;52.634;9.226;2023-01-25T19:36:03;-0.20;99.90
13205;DHT22;6667;52.634;9.226;2023-01-25T19:38:31;-0.20;99.90
13205;DHT22;6667;52.634;9.226;2023-01-25T19:41:02;-0.40;99.90
13205;DHT22;6667;52.634;9.226;2023-01-25T19:43:29;-0.30;99.90
13205;DHT22;6667;52.634;9.226;2023-01-25T19:46:07;-0.30;99.90
13205;DHT22;6667;52.634;9.226;2023-01-25T19:48:34;-0.40;99.90
13205;DHT22;6667;52.634;9.226;2023-01-25T19:51:11;-0.40;99.90
13205;DHT22;6667;52.634;9.226;2023-01-25T19:53:40;-0.50;99.90
13205;DHT22;6667;52.634;9.226;2023-01-25T19:56:11;-0.60;99.90
13205;DHT22;6667;52.634;9.226;2023-01-25T19:58:39;-0.60;99.90
13205;DHT22;6667;52.634;9.226;2023-01-25T20:01:09;-0.60;99.90
13205;DHT22;6667;52.634;9.226;2023-01-25T20:03:37;-0.60;99.90
13205;DHT22;6667;52.634;9.226;2023-01-25T20:06:04;-0.50;99.90
13205;DHT22;6667;52.634;9.226;2023-01-25T20:08:33;-0.60;99.90
13205;DHT22;6667;52.634;9.226;2023-01-25T20:11:02;-0.60;99.90
13205;DHT22;6667;52.634;9.226;2023-01-25T20:13:29;-0.60;99.90
13205;DHT22;6667;52.634;9.226;2023-01-25T20:15:55;-0.50;99.90
13205;DHT22;6667;52.634;9.226;2023-01-25T20:18:24;-0.50;99.90
13205;DHT22;6667;52.634;9.226;2023-01-25T20:20:55;-0.40;99.90
13205;DHT22;6667;52.634;9.226;2023-01-25T20:23:22;-0.40;99.90
13205;DHT22;6667;52.634;9.226;2023-01-25T20:25:55;-0.50;99.90
13205;DHT22;6667;52.634;9.226;2023-01-25T20:28:23;-0.60;99.90
13205;DHT22;6667;52.634;9.226;2023-01-25T20:30:49;-0.60;99.90
13205;DHT22;6667;52.634;9.226;2023-01-25T20:33:16;-0.60;99.90
13205;DHT22;6667;52.634;9.226;2023-01-25T20:35:44;-0.60;99.90
13205;DHT22;6667;52.634;9.226;2023-01-25T20:38:11;-0.70;99.90
13205;DHT22;6667;52.634;9.226;2023-01-25T20:40:38;-0.70;99.90
13205;DHT22;6667;52.634;9.226;2023-01-25T20:43:05;-0.70;99.90
13205;DHT22;6667;52.634;9.226;2023-01-25T20:45:31;-0.60;99.90
13205;DHT22;6667;52.634;9.226;2023-01-25T20:47:59;-0.60;99.90
13205;DHT22;6667;52.634;9.226;2023-01-25T20:50:26;-0.50;99.90
13205;DHT22;6667;52.634;9.226;2023-01-25T20:52:54;-0.60;99.90
13205;DHT22;6667;52.634;9.226;2023-01-25T20:55:20;-0.60;99.90
13205;DHT22;6667;52.634;9.226;2023-01-25T20:57:47;-0.70;99.90
13205;DHT22;6667;52.634;9.226;2023-01-25T21:00:15;-0.70;99.90
13205;DHT22;6667;52.634;9.226;2023-01-25T21:02:41;-0.70;99.90
13205;DHT22;6667;52.634;9.226;2023-01-25T21:05:08;-0.70;99.90
13205;DHT22;6667;52.634;9.226;2023-01-25T21:07:35;-0.70;99.90
13205;DHT22;6667;52.634;9.226;2023-01-25T21:10:03;-0.70;99.90
13205;DHT22;6667;52.634;9.226;2023-01-25T21:12:30;-0.70;99.90
13205;DHT22;6667;52.634;9.226;2023-01-25T21:14:57;-0.70;99.90
13205;DHT22;6667;52.634;9.226;2023-01-25T21:17:24;-0.80;99.90
13205;DHT22;6667;52.634;9.226;2023-01-25T21:19:51;-0.80;99.90
13205;DHT22;6667;52.634;9.226;2023-01-25T21:22:17;-0.70;99.90
13205;DHT22;6667;52.634;9.226;2023-01-25T21:24:44;-0.60;99.90
13205;DHT22;6667;52.634;9.226;2023-01-25T21:27:12;-0.60;99.90
13205;DHT22;6667;52.634;9.226;2023-01-25T21:29:38;-0.60;99.90
13205;DHT22;6667;52.634;9.226;2023-01-25T21:32:05;-0.60;99.90
13205;DHT22;6667;52.634;9.226;2023-01-25T21:34:32;-0.60;99.90
13205;DHT22;6667;52.634;9.226;2023-01-25T21:36:58;-0.60;99.90
13205;DHT22;6667;52.634;9.226;2023-01-25T21:39:25;-0.60;99.90
13205;DHT22;6667;52.634;9.226;2023-01-25T21:41:52;-0.60;99.90
13205;DHT22;6667;52.634;9.226;2023-01-25T21:44:20;-0.60;99.90
13205;DHT22;6667;52.634;9.226;2023-01-25T21:47:04;-0.60;99.90
13205;DHT22;6667;52.634;9.226;2023-01-25T21:49:30;-0.60;99.90
13205;DHT22;6667;52.634;9.226;2023-01-25T21:52:15;-0.70;99.90
13205;DHT22;6667;52.634;9.226;2023-01-25T21:54:41;-0.70;99.90
13205;DHT22;6667;52.634;9.226;2023-01-25T21:57:08;-0.80;99.90
13205;DHT22;6667;52.634;9.226;2023-01-25T21:59:37;-0.80;99.90
13205;DHT22;6667;52.634;9.226;2023-01-25T22:02:06;-0.80;99.90
13205;DHT22;6667;52.634;9.226;2023-01-25T22:04:33;-0.80;99.90
13205;DHT22;6667;52.634;9.226;2023-01-25T22:07:00;-0.80;99.90
13205;DHT22;6667;52.634;9.226;2023-01-25T22:09:27;-0.90;99.90
13205;DHT22;6667;52.634;9.226;2023-01-25T22:11:53;-0.90;99.90
13205;DHT22;6667;52.634;9.226;2023-01-25T22:14:20;-0.90;99.90
13205;DHT22;6667;52.634;9.226;2023-01-25T22:16:49;-0.90;99.90
13205;DHT22;6667;52.634;9.226;2023-01-25T22:19:15;-0.90;99.90
13205;DHT22;6667;52.634;9.226;2023-01-25T22:21:43;-0.90;99.90
13205;DHT22;6667;52.634;9.226;2023-01-25T22:24:10;-0.90;99.90
13205;DHT22;6667;52.634;9.226;2023-01-25T22:26:46;-1.00;99.90
13205;DHT22;6667;52.634;9.226;2023-01-25T22:29:15;-1.10;99.90
13205;DHT22;6667;52.634;9.226;2023-01-25T22:31:42;-1.10;99.90
13205;DHT22;6667;52.634;9.226;2023-01-25T22:34:10;-1.00;99.90
13205;DHT22;6667;52.634;9.226;2023-01-25T22:36:36;-1.00;99.90
13205;DHT22;6667;52.634;9.226;2023-01-25T22:39:03;-1.00;99.90
13205;DHT22;6667;52.634;9.226;2023-01-25T22:41:30;-0.90;99.90